الصفحة الرئيسية
METAR-TAF:

METAR-TAF

مطار :

سيدني, نبراسكا, الولايات المتحدة

Sidney Municipal Airport (Lloyd W. Carr Field)

دائرة عرض: 41-05-58N, خط طول: 102-59-08W, ارتفاع: 1314 متر

مراقبة الطقس الحالي

تاريخ ووقت الإصدار 17 دقيقة قبل الساعة 15:53UTC
ريح 4 عقدةمن اتجاهات متغيرة
درجة الحرارة 7°درجة مئوية
الرطوبة 49%
ضغط 1026 hPa
الرؤية: 16.1 كم
سماء صافية

METAR: KSNY 251553Z AUTO VRB04KT 10SM CLR 07/M03 A3031 RMK AO2 SLP275 T00721028

زمن: 10:10 (16:10 UTC)

توقعات

تاريخ ووقت الإصدار 4ساعات و 50 دقيقة قبل الساعة 11:20UTC
التوقعات صالحة من25 الساعة 12 UTC إلى 26 الساعة 12 UTC
ريح 8 عقدة من الغرب
الرؤية: 10 كم
سماء صافية
من 25 الساعة 2300 UTC
ريح 8 عقدة من الجنوب/الجنوب الغربي
الرؤية: 10 كم
سماء صافية
من 26 الساعة 0800 UTC
ريح 25 عقدة من الشمال/الشمال الغربي تتزايد حتى 35 عقدة
الرؤية: 10 كم
غيوم مفككة على ارتفاع 5000 قدم

TAF: KSNY 251120Z 2512/2612 27008KT P6SM SKC FM252300 20008KT P6SM SKC FM260800 34025G35KT P6SM BKN050

أرصاد الطقس والتوقعات من أكثر من 4000 مطار (تقارير الطقس للمطار METAR والتنبؤ بالطقس بالمطارTAF).

المحطات المتاحة هي النقط الصفراء والحمراء على الخريطة.

حرك المؤشر فوق النقطة لمعرفة اسم المحطة.

ثم انقر لمعرفة أرصاد وتوقعات الطقس.

لتغيير الخارطة: اضغط على الأزرار الخضراء مع رمز الصليب الأسود للتكبير. على الزر الأخضر مع شرطة للتصغير، أو على الأسهم الخضراء للخرائط المجاورة.


METAR-TAF: